sensor_id;sensor_type;location;lat;lon;timestamp;temperature;humidity
3528;DHT22;1778;47.966;7.854;2023-02-15T00:00:45;-1.00;99.90
3528;DHT22;1778;47.966;7.854;2023-02-15T00:01:47;-1.00;99.90
3528;DHT22;1778;47.966;7.854;2023-02-15T00:02:48;-1.10;99.90
3528;DHT22;1778;47.966;7.854;2023-02-15T00:03:50;-1.10;99.90
3528;DHT22;1778;47.966;7.854;2023-02-15T00:04:52;-1.10;99.90
3528;DHT22;1778;47.966;7.854;2023-02-15T00:05:56;-1.10;99.90
3528;DHT22;1778;47.966;7.854;2023-02-15T00:06:59;-1.20;99.90
3528;DHT22;1778;47.966;7.854;2023-02-15T00:08:00;-1.20;99.90
3528;DHT22;1778;47.966;7.854;2023-02-15T00:09:03;-1.10;99.90
3528;DHT22;1778;47.966;7.854;2023-02-15T00:10:05;-1.20;99.90
3528;DHT22;1778;47.966;7.854;2023-02-15T00:11:08;-1.20;99.90
3528;DHT22;1778;47.966;7.854;2023-02-15T00:12:10;-1.20;99.90
3528;DHT22;1778;47.966;7.854;2023-02-15T00:13:12;-1.20;99.90
3528;DHT22;1778;47.966;7.854;2023-02-15T00:15:16;-1.10;99.90
3528;DHT22;1778;47.966;7.854;2023-02-15T00:16:18;-1.00;99.90
3528;DHT22;1778;47.966;7.854;2023-02-15T00:17:21;-1.10;99.90
3528;DHT22;1778;47.966;7.854;2023-02-15T00:18:22;-1.00;99.90
3528;DHT22;1778;47.966;7.854;2023-02-15T00:19:23;-1.00;99.90
3528;DHT22;1778;47.966;7.854;2023-02-15T00:20:25;-1.00;99.90
3528;DHT22;1778;47.966;7.854;2023-02-15T00:21:27;-1.10;99.90
3528;DHT22;1778;47.966;7.854;2023-02-15T00:22:30;-1.10;99.90
3528;DHT22;1778;47.966;7.854;2023-02-15T00:23:31;-1.20;99.90
3528;DHT22;1778;47.966;7.854;2023-02-15T00:24:33;-1.20;99.90
3528;DHT22;1778;47.966;7.854;2023-02-15T00:25:34;-1.10;99.90
3528;DHT22;1778;47.966;7.854;2023-02-15T00:26:38;-1.20;99.90
3528;DHT22;1778;47.966;7.854;2023-02-15T00:27:40;-1.20;99.90
3528;DHT22;1778;47.966;7.854;2023-02-15T00:28:41;-1.20;99.90
3528;DHT22;1778;47.966;7.854;2023-02-15T00:29:43;-1.10;99.90
3528;DHT22;1778;47.966;7.854;2023-02-15T00:30:44;-1.10;99.90
3528;DHT22;1778;47.966;7.854;2023-02-15T00:31:46;-1.20;99.90
3528;DHT22;1778;47.966;7.854;2023-02-15T00:32:48;-1.10;99.90
3528;DHT22;1778;47.966;7.854;2023-02-15T00:33:50;-1.00;99.90
3528;DHT22;1778;47.966;7.854;2023-02-15T00:34:52;-1.10;99.90
3528;DHT22;1778;47.966;7.854;2023-02-15T00:35:58;-1.00;99.90
3528;DHT22;1778;47.966;7.854;2023-02-15T00:37:00;-1.00;99.90
3528;DHT22;1778;47.966;7.854;2023-02-15T00:38:01;-1.00;99.90
3528;DHT22;1778;47.966;7.854;2023-02-15T00:39:04;-1.10;99.90
3528;DHT22;1778;47.966;7.854;2023-02-15T00:40:06;-1.10;99.90
3528;DHT22;1778;47.966;7.854;2023-02-15T00:41:09;-1.20;99.90
3528;DHT22;1778;47.966;7.854;2023-02-15T00:42:11;-1.30;99.90
3528;DHT22;1778;47.966;7.854;2023-02-15T00:43:13;-1.20;99.90
3528;DHT22;1778;47.966;7.854;2023-02-15T00:44:16;-1.20;99.90
3528;DHT22;1778;47.966;7.854;2023-02-15T00:45:18;-1.20;99.90
3528;DHT22;1778;47.966;7.854;2023-02-15T00:46:19;-1.10;99.90
3528;DHT22;1778;47.966;7.854;2023-02-15T00:47:21;-1.10;99.90
3528;DHT22;1778;47.966;7.854;2023-02-15T00:48:23;-1.10;99.90
3528;DHT22;1778;47.966;7.854;2023-02-15T00:49:24;-1.10;99.90
3528;DHT22;1778;47.966;7.854;2023-02-15T00:50:28;-1.10;99.90
3528;DHT22;1778;47.966;7.854;2023-02-15T00:51:30;-1.20;99.90
3528;DHT22;1778;47.966;7.854;2023-02-15T00:52:32;-1.10;99.90
3528;DHT22;1778;47.966;7.854;2023-02-15T00:53:34;-1.10;99.90
3528;DHT22;1778;47.966;7.854;2023-02-15T00:54:35;-1.20;99.90
3528;DHT22;1778;47.966;7.854;2023-02-15T00:55:37;-1.20;99.90
3528;DHT22;1778;47.966;7.854;2023-02-15T00:56:41;-1.10;99.90
3528;DHT22;1778;47.966;7.854;2023-02-15T00:57:42;-1.10;99.90
3528;DHT22;1778;47.966;7.854;2023-02-15T00:58:44;-1.10;99.90
3528;DHT22;1778;47.966;7.854;2023-02-15T00:59:45;-1.20;99.90
3528;DHT22;1778;47.966;7.854;2023-02-15T01:00:48;-1.30;99.90
3528;DHT22;1778;47.966;7.854;2023-02-15T01:01:49;-1.40;99.90
3528;DHT22;1778;47.966;7.854;2023-02-15T01:02:53;-1.30;99.90
3528;DHT22;1778;47.966;7.854;2023-02-15T01:03:55;-1.30;99.90
3528;DHT22;1778;47.966;7.854;2023-02-15T01:04:56;-1.30;99.90
3528;DHT22;1778;47.966;7.854;2023-02-15T01:05:58;-1.30;99.90
3528;DHT22;1778;47.966;7.854;2023-02-15T01:07:00;-1.40;99.90
3528;DHT22;1778;47.966;7.854;2023-02-15T01:08:03;-1.40;99.90
3528;DHT22;1778;47.966;7.854;2023-02-15T01:09:05;-1.50;99.90
3528;DHT22;1778;47.966;7.854;2023-02-15T01:10:07;-1.50;99.90
3528;DHT22;1778;47.966;7.854;2023-02-15T01:11:14;-1.50;99.90
3528;DHT22;1778;47.966;7.854;2023-02-15T01:12:16;-1.60;99.90
3528;DHT22;1778;47.966;7.854;2023-02-15T01:13:17;-1.50;99.90
3528;DHT22;1778;47.966;7.854;2023-02-15T01:14:19;-1.50;99.90
3528;DHT22;1778;47.966;7.854;2023-02-15T01:15:20;-1.50;99.90
3528;DHT22;1778;47.966;7.854;2023-02-15T01:16:24;-1.60;99.90
3528;DHT22;1778;47.966;7.854;2023-02-15T01:17:26;-1.50;99.90
3528;DHT22;1778;47.966;7.854;2023-02-15T01:18:27;-1.50;99.90
3528;DHT22;1778;47.966;7.854;2023-02-15T01:19:29;-1.60;99.90
3528;DHT22;1778;47.966;7.854;2023-02-15T01:20:36;-1.60;99.90
3528;DHT22;1778;47.966;7.854;2023-02-15T01:21:40;-1.60;99.90
3528;DHT22;1778;47.966;7.854;2023-02-15T01:22:43;-1.50;99.90
3528;DHT22;1778;47.966;7.854;2023-02-15T01:23:45;-1.50;99.90
3528;DHT22;1778;47.966;7.854;2023-02-15T01:24:49;-1.40;99.90
3528;DHT22;1778;47.966;7.854;2023-02-15T01:25:51;-1.50;99.90
3528;DHT22;1778;47.966;7.854;2023-02-15T01:26:53;-1.60;99.90
3528;DHT22;1778;47.966;7.854;2023-02-15T01:27:55;-1.50;99.90
3528;DHT22;1778;47.966;7.854;2023-02-15T01:28:56;-1.60;99.90
3528;DHT22;1778;47.966;7.854;2023-02-15T01:29:57;-1.50;99.90
3528;DHT22;1778;47.966;7.854;2023-02-15T01:30:59;-1.50;99.90
3528;DHT22;1778;47.966;7.854;2023-02-15T01:32:01;-1.60;99.90
3528;DHT22;1778;47.966;7.854;2023-02-15T01:33:03;-1.70;99.90
3528;DHT22;1778;47.966;7.854;2023-02-15T01:34:05;-1.70;99.90
3528;DHT22;1778;47.966;7.854;2023-02-15T01:35:07;-1.80;99.90
3528;DHT22;1778;47.966;7.854;2023-02-15T01:36:10;-1.80;99.90
3528;DHT22;1778;47.966;7.854;2023-02-15T01:37:12;-1.70;99.90
3528;DHT22;1778;47.966;7.854;2023-02-15T01:38:15;-1.70;99.90
3528;DHT22;1778;47.966;7.854;2023-02-15T01:39:16;-1.70;99.90
3528;DHT22;1778;47.966;7.854;2023-02-15T01:40:18;-1.70;99.90
3528;DHT22;1778;47.966;7.854;2023-02-15T01:41:20;-1.70;99.90
3528;DHT22;1778;47.966;7.854;2023-02-15T01:42:24;-1.60;99.90
3528;DHT22;1778;47.966;7.854;2023-02-15T01:43:42;-1.70;99.90
3528;DHT22;1778;47.966;7.854;2023-02-15T01:45:49;-1.70;99.90
3528;DHT22;1778;47.966;7.854;2023-02-15T01:46:52;-1.70;99.90
3528;DHT22;1778;47.966;7.854;2023-02-15T01:47:59;-1.70;99.90
3528;DHT22;1778;47.966;7.854;2023-02-15T01:49:12;-1.70;99.90
3528;DHT22;1778;47.966;7.854;2023-02-15T01:50:29;-1.60;99.90
3528;DHT22;1778;47.966;7.854;2023-02-15T01:51:34;-1.70;99.90
3528;DHT22;1778;47.966;7.854;2023-02-15T01:52:40;-1.70;99.90
3528;DHT22;1778;47.966;7.854;2023-02-15T01:53:51;-1.70;99.90
3528;DHT22;1778;47.966;7.854;2023-02-15T01:54:53;-1.60;99.90
3528;DHT22;1778;47.966;7.854;2023-02-15T01:56:11;-1.60;99.90
3528;DHT22;1778;47.966;7.854;2023-02-15T01:57:18;-1.60;99.90
3528;DHT22;1778;47.966;7.854;2023-02-15T01:58:22;-1.60;99.90
3528;DHT22;1778;47.966;7.854;2023-02-15T01:59:25;-1.60;99.90
3528;DHT22;1778;47.966;7.854;2023-02-15T02:00:28;-1.70;99.90
3528;DHT22;1778;47.966;7.854;2023-02-15T02:01:30;-1.70;99.90
3528;DHT22;1778;47.966;7.854;2023-02-15T02:02:32;-1.70;99.90
3528;DHT22;1778;47.966;7.854;2023-02-15T02:05:00;-1.70;99.90
3528;DHT22;1778;47.966;7.854;2023-02-15T02:06:07;-1.80;99.90
3528;DHT22;1778;47.966;7.854;2023-02-15T02:07:09;-1.70;99.90
3528;DHT22;1778;47.966;7.854;2023-02-15T02:08:13;-1.80;99.90
3528;DHT22;1778;47.966;7.854;2023-02-15T02:09:16;-1.80;99.90
3528;DHT22;1778;47.966;7.854;2023-02-15T02:10:20;-1.80;99.90
3528;DHT22;1778;47.966;7.854;2023-02-15T02:11:23;-1.80;99.90
3528;DHT22;1778;47.966;7.854;2023-02-15T02:12:25;-1.70;99.90
3528;DHT22;1778;47.966;7.854;2023-02-15T02:13:27;-1.70;99.90
3528;DHT22;1778;47.966;7.854;2023-02-15T02:14:29;-1.80;99.90
3528;DHT22;1778;47.966;7.854;2023-02-15T02:18:41;-1.80;99.90
3528;DHT22;1778;47.966;7.854;2023-02-15T02:20:36;-1.80;99.90
3528;DHT22;1778;47.966;7.854;2023-02-15T02:27:48;-1.90;99.90
3528;DHT22;1778;47.966;7.854;2023-02-15T02:35:38;-1.70;99.90
3528;DHT22;1778;47.966;7.854;2023-02-15T02:36:49;-1.80;99.90
3528;DHT22;1778;47.966;7.854;2023-02-15T02:38:15;-1.80;99.90
3528;DHT22;1778;47.966;7.854;2023-02-15T02:39:38;-1.80;99.90
3528;DHT22;1778;47.966;7.854;2023-02-15T02:43:21;-1.70;99.90
3528;DHT22;1778;47.966;7.854;2023-02-15T02:46:46;-1.70;99.90
3528;DHT22;1778;47.966;7.854;2023-02-15T02:47:53;-1.80;99.90
3528;DHT22;1778;47.966;7.854;2023-02-15T02:48:57;-1.80;99.90
3528;DHT22;1778;47.966;7.854;2023-02-15T02:50:00;-1.80;99.90
3528;DHT22;1778;47.966;7.854;2023-02-15T02:51:02;-1.80;99.90
3528;DHT22;1778;47.966;7.854;2023-02-15T02:52:07;-1.70;99.90
3528;DHT22;1778;47.966;7.854;2023-02-15T02:53:09;-1.70;99.90
3528;DHT22;1778;47.966;7.854;2023-02-15T02:54:12;-1.70;99.90
3528;DHT22;1778;47.966;7.854;2023-02-15T02:55:43;-1.70;99.90
3528;DHT22;1778;47.966;7.854;2023-02-15T02:56:47;-1.80;99.90
3528;DHT22;1778;47.966;7.854;2023-02-15T02:57:57;-1.70;99.90
3528;DHT22;1778;47.966;7.854;2023-02-15T02:59:29;-1.80;99.90
3528;DHT22;1778;47.966;7.854;2023-02-15T03:00:30;-1.80;99.90
3528;DHT22;1778;47.966;7.854;2023-02-15T03:01:36;-1.80;99.90
3528;DHT22;1778;47.966;7.854;2023-02-15T03:02:41;-1.80;99.90
3528;DHT22;1778;47.966;7.854;2023-02-15T03:03:47;-1.80;99.90
3528;DHT22;1778;47.966;7.854;2023-02-15T03:04:58;-1.80;99.90
3528;DHT22;1778;47.966;7.854;2023-02-15T03:06:28;-1.80;99.90
3528;DHT22;1778;47.966;7.854;2023-02-15T03:07:31;-1.70;99.90
3528;DHT22;1778;47.966;7.854;2023-02-15T03:08:41;-1.70;99.90
3528;DHT22;1778;47.966;7.854;2023-02-15T03:09:46;-1.70;99.90
3528;DHT22;1778;47.966;7.854;2023-02-15T03:10:52;-1.70;99.90
3528;DHT22;1778;47.966;7.854;2023-02-15T03:11:55;-1.70;99.90
3528;DHT22;1778;47.966;7.854;2023-02-15T03:12:56;-1.70;99.90
3528;DHT22;1778;47.966;7.854;2023-02-15T03:14:00;-1.70;99.90
3528;DHT22;1778;47.966;7.854;2023-02-15T03:15:03;-1.70;99.90
3528;DHT22;1778;47.966;7.854;2023-02-15T03:16:08;-1.80;99.90
3528;DHT22;1778;47.966;7.854;2023-02-15T03:17:31;-1.90;99.90
3528;DHT22;1778;47.966;7.854;2023-02-15T03:18:36;-1.80;99.90
3528;DHT22;1778;47.966;7.854;2023-02-15T03:19:40;-1.80;99.90
3528;DHT22;1778;47.966;7.854;2023-02-15T03:20:44;-1.80;99.90
3528;DHT22;1778;47.966;7.854;2023-02-15T03:21:51;-1.80;99.90
3528;DHT22;1778;47.966;7.854;2023-02-15T03:23:14;-1.80;99.90
3528;DHT22;1778;47.966;7.854;2023-02-15T03:24:24;-1.80;99.90
3528;DHT22;1778;47.966;7.854;2023-02-15T03:25:34;-1.80;99.90
3528;DHT22;1778;47.966;7.854;2023-02-15T03:26:39;-1.80;99.90
3528;DHT22;1778;47.966;7.854;2023-02-15T03:27:53;-1.80;99.90
3528;DHT22;1778;47.966;7.854;2023-02-15T03:28:57;-1.70;99.90
3528;DHT22;1778;47.966;7.854;2023-02-15T03:30:00;-1.70;99.90
3528;DHT22;1778;47.966;7.854;2023-02-15T03:31:06;-1.70;99.90
3528;DHT22;1778;47.966;7.854;2023-02-15T03:32:10;-1.70;99.90
3528;DHT22;1778;47.966;7.854;2023-02-15T03:33:13;-1.70;99.90
3528;DHT22;1778;47.966;7.854;2023-02-15T03:34:17;-1.70;99.90
3528;DHT22;1778;47.966;7.854;2023-02-15T03:35:24;-1.60;99.90
3528;DHT22;1778;47.966;7.854;2023-02-15T03:38:00;-1.50;99.90
3528;DHT22;1778;47.966;7.854;2023-02-15T03:39:30;-1.50;99.90
3528;DHT22;1778;47.966;7.854;2023-02-15T03:40:37;-1.50;99.90
3528;DHT22;1778;47.966;7.854;2023-02-15T03:43:17;-1.30;99.90
3528;DHT22;1778;47.966;7.854;2023-02-15T03:44:29;-1.30;99.90
3528;DHT22;1778;47.966;7.854;2023-02-15T03:45:32;-1.30;99.90
3528;DHT22;1778;47.966;7.854;2023-02-15T03:48:09;-1.20;99.90
3528;DHT22;1778;47.966;7.854;2023-02-15T03:49:20;-1.10;99.90
3528;DHT22;1778;47.966;7.854;2023-02-15T03:50:27;-1.10;99.90
3528;DHT22;1778;47.966;7.854;2023-02-15T03:51:52;-1.10;99.90
3528;DHT22;1778;47.966;7.854;2023-02-15T03:52:55;-1.00;99.90
3528;DHT22;1778;47.966;7.854;2023-02-15T03:54:00;-1.00;99.90
3528;DHT22;1778;47.966;7.854;2023-02-15T03:55:03;-1.00;99.90
3528;DHT22;1778;47.966;7.854;2023-02-15T03:56:04;-1.00;99.90
3528;DHT22;1778;47.966;7.854;2023-02-15T03:57:12;-1.20;99.90
3528;DHT22;1778;47.966;7.854;2023-02-15T03:58:32;-1.40;99.90
3528;DHT22;1778;47.966;7.854;2023-02-15T03:59:53;-1.20;99.90
3528;DHT22;1778;47.966;7.854;2023-02-15T04:01:26;-1.20;99.90
3528;DHT22;1778;47.966;7.854;2023-02-15T04:03:09;-1.20;99.90
3528;DHT22;1778;47.966;7.854;2023-02-15T04:04:19;-1.30;99.90
3528;DHT22;1778;47.966;7.854;2023-02-15T04:05:22;-1.20;99.90
3528;DHT22;1778;47.966;7.854;2023-02-15T04:06:24;-1.20;99.90
3528;DHT22;1778;47.966;7.854;2023-02-15T04:07:26;-1.30;99.90
3528;DHT22;1778;47.966;7.854;2023-02-15T04:08:28;-1.20;99.90
3528;DHT22;1778;47.966;7.854;2023-02-15T04:09:48;-1.20;99.90
3528;DHT22;1778;47.966;7.854;2023-02-15T04:11:08;-1.20;99.90
3528;DHT22;1778;47.966;7.854;2023-02-15T04:12:10;-1.10;99.90
3528;DHT22;1778;47.966;7.854;2023-02-15T04:13:12;-1.10;99.90
3528;DHT22;1778;47.966;7.854;2023-02-15T04:14:13;-1.10;99.90
3528;DHT22;1778;47.966;7.854;2023-02-15T04:15:33;-1.10;99.90
3528;DHT22;1778;47.966;7.854;2023-02-15T04:16:54;-1.10;99.90
3528;DHT22;1778;47.966;7.854;2023-02-15T04:17:55;-1.10;99.90
3528;DHT22;1778;47.966;7.854;2023-02-15T04:18:56;-1.10;99.90
3528;DHT22;1778;47.966;7.854;2023-02-15T04:20:17;-1.10;99.90
3528;DHT22;1778;47.966;7.854;2023-02-15T04:21:37;-1.10;99.90
3528;DHT22;1778;47.966;7.854;2023-02-15T04:22:58;-1.10;99.90
3528;DHT22;1778;47.966;7.854;2023-02-15T04:24:18;-1.10;99.90
3528;DHT22;1778;47.966;7.854;2023-02-15T04:25:39;-1.10;99.90
3528;DHT22;1778;47.966;7.854;2023-02-15T04:26:40;-1.00;99.90
3528;DHT22;1778;47.966;7.854;2023-02-15T04:27:50;-1.10;99.90
3528;DHT22;1778;47.966;7.854;2023-02-15T04:28:52;-1.20;99.90
3528;DHT22;1778;47.966;7.854;2023-02-15T04:29:53;-1.20;99.90
3528;DHT22;1778;47.966;7.854;2023-02-15T04:30:55;-1.30;99.90
3528;DHT22;1778;47.966;7.854;2023-02-15T04:31:58;-1.30;99.90
3528;DHT22;1778;47.966;7.854;2023-02-15T04:33:00;-1.30;99.90
3528;DHT22;1778;47.966;7.854;2023-02-15T04:34:01;-1.40;99.90
3528;DHT22;1778;47.966;7.854;2023-02-15T04:35:05;-1.40;99.90
3528;DHT22;1778;47.966;7.854;2023-02-15T04:36:07;-1.40;99.90
3528;DHT22;1778;47.966;7.854;2023-02-15T04:37:08;-1.50;99.90
3528;DHT22;1778;47.966;7.854;2023-02-15T04:38:11;-1.50;99.90
3528;DHT22;1778;47.966;7.854;2023-02-15T04:39:14;-1.50;99.90
3528;DHT22;1778;47.966;7.854;2023-02-15T04:40:17;-1.60;99.90
3528;DHT22;1778;47.966;7.854;2023-02-15T04:41:19;-1.60;99.90
3528;DHT22;1778;47.966;7.854;2023-02-15T04:42:21;-1.60;99.90
3528;DHT22;1778;47.966;7.854;2023-02-15T04:43:23;-1.60;99.90
3528;DHT22;1778;47.966;7.854;2023-02-15T04:44:24;-1.60;99.90
3528;DHT22;1778;47.966;7.854;2023-02-15T04:45:25;-1.70;99.90
3528;DHT22;1778;47.966;7.854;2023-02-15T04:46:28;-1.70;99.90
3528;DHT22;1778;47.966;7.854;2023-02-15T04:47:30;-1.70;99.90
3528;DHT22;1778;47.966;7.854;2023-02-15T04:48:31;-1.80;99.90
3528;DHT22;1778;47.966;7.854;2023-02-15T04:49:32;-1.70;99.90
3528;DHT22;1778;47.966;7.854;2023-02-15T04:50:34;-1.80;99.90
3528;DHT22;1778;47.966;7.854;2023-02-15T04:51:35;-1.80;99.90
3528;DHT22;1778;47.966;7.854;2023-02-15T04:52:38;-1.80;99.90
3528;DHT22;1778;47.966;7.854;2023-02-15T04:53:39;-1.80;99.90
3528;DHT22;1778;47.966;7.854;2023-02-15T04:54:41;-1.90;99.90
3528;DHT22;1778;47.966;7.854;2023-02-15T04:55:42;-1.90;99.90
3528;DHT22;1778;47.966;7.854;2023-02-15T04:56:44;-1.90;99.90
3528;DHT22;1778;47.966;7.854;2023-02-15T04:57:46;-1.80;99.90
3528;DHT22;1778;47.966;7.854;2023-02-15T04:58:47;-1.80;99.90
3528;DHT22;1778;47.966;7.854;2023-02-15T04:59:49;-1.80;99.90
3528;DHT22;1778;47.966;7.854;2023-02-15T05:00:55;-1.80;99.90
3528;DHT22;1778;47.966;7.854;2023-02-15T05:01:57;-1.80;99.90
3528;DHT22;1778;47.966;7.854;2023-02-15T05:02:58;-1.80;99.90
3528;DHT22;1778;47.966;7.854;2023-02-15T05:04:00;-1.90;99.90
3528;DHT22;1778;47.966;7.854;2023-02-15T05:05:02;-1.90;99.90
3528;DHT22;1778;47.966;7.854;2023-02-15T05:06:04;-1.90;99.90
3528;DHT22;1778;47.966;7.854;2023-02-15T05:07:06;-1.90;99.90
3528;DHT22;1778;47.966;7.854;2023-02-15T05:08:07;-1.80;99.90
3528;DHT22;1778;47.966;7.854;2023-02-15T05:09:13;-1.80;99.90
3528;DHT22;1778;47.966;7.854;2023-02-15T05:10:15;-1.90;99.90
3528;DHT22;1778;47.966;7.854;2023-02-15T05:11:16;-1.90;99.90
3528;DHT22;1778;47.966;7.854;2023-02-15T05:12:18;-2.00;99.90
3528;DHT22;1778;47.966;7.854;2023-02-15T05:13:19;-2.00;99.90
3528;DHT22;1778;47.966;7.854;2023-02-15T05:14:21;-1.90;99.90
3528;DHT22;1778;47.966;7.854;2023-02-15T05:15:22;-1.80;99.90
3528;DHT22;1778;47.966;7.854;2023-02-15T05:16:24;-1.90;99.90
3528;DHT22;1778;47.966;7.854;2023-02-15T05:17:27;-1.90;99.90
3528;DHT22;1778;47.966;7.854;2023-02-15T05:18:28;-1.70;99.90
3528;DHT22;1778;47.966;7.854;2023-02-15T05:19:30;-1.70;99.90
3528;DHT22;1778;47.966;7.854;2023-02-15T05:20:32;-1.80;99.90
3528;DHT22;1778;47.966;7.854;2023-02-15T05:21:34;-1.80;99.90
3528;DHT22;1778;47.966;7.854;2023-02-15T05:22:35;-1.80;99.90
3528;DHT22;1778;47.966;7.854;2023-02-15T05:23:37;-1.70;99.90
3528;DHT22;1778;47.966;7.854;2023-02-15T05:24:38;-1.80;99.90
3528;DHT22;1778;47.966;7.854;2023-02-15T05:25:59;-1.90;99.90
3528;DHT22;1778;47.966;7.854;2023-02-15T05:27:19;-1.90;99.90
3528;DHT22;1778;47.966;7.854;2023-02-15T05:28:39;-2.00;99.90
3528;DHT22;1778;47.966;7.854;2023-02-15T05:29:41;-1.90;99.90
3528;DHT22;1778;47.966;7.854;2023-02-15T05:30:43;-1.90;99.90
3528;DHT22;1778;47.966;7.854;2023-02-15T05:31:44;-2.00;99.90
3528;DHT22;1778;47.966;7.854;2023-02-15T05:32:48;-2.10;99.90
3528;DHT22;1778;47.966;7.854;2023-02-15T05:33:50;-2.10;99.90
3528;DHT22;1778;47.966;7.854;2023-02-15T05:34:52;-2.20;99.90
3528;DHT22;1778;47.966;7.854;2023-02-15T05:35:54;-2.20;99.90
3528;DHT22;1778;47.966;7.854;2023-02-15T05:36:55;-2.10;99.90
3528;DHT22;1778;47.966;7.854;2023-02-15T05:37:57;-2.10;99.90
3528;DHT22;1778;47.966;7.854;2023-02-15T05:38:58;-2.20;99.90
3528;DHT22;1778;47.966;7.854;2023-02-15T05:40:00;-2.20;99.90
3528;DHT22;1778;47.966;7.854;2023-02-15T05:41:02;-2.20;99.90
3528;DHT22;1778;47.966;7.854;2023-02-15T05:42:04;-2.20;99.90
3528;DHT22;1778;47.966;7.854;2023-02-15T05:43:05;-2.10;99.90
3528;DHT22;1778;47.966;7.854;2023-02-15T05:44:07;-2.00;99.90
3528;DHT22;1778;47.966;7.854;2023-02-15T05:45:09;-2.00;99.90
3528;DHT22;1778;47.966;7.854;2023-02-15T05:46:11;-2.00;99.90
3528;DHT22;1778;47.966;7.854;2023-02-15T05:47:13;-2.10;99.90
3528;DHT22;1778;47.966;7.854;2023-02-15T05:48:16;-2.10;99.90
3528;DHT22;1778;47.966;7.854;2023-02-15T05:49:18;-2.10;99.90
3528;DHT22;1778;47.966;7.854;2023-02-15T05:50:19;-2.20;99.90
3528;DHT22;1778;47.966;7.854;2023-02-15T05:51:21;-2.20;99.90
3528;DHT22;1778;47.966;7.854;2023-02-15T05:52:22;-2.20;99.90
3528;DHT22;1778;47.966;7.854;2023-02-15T05:53:24;-2.30;99.90
3528;DHT22;1778;47.966;7.854;2023-02-15T05:54:26;-2.30;99.90
3528;DHT22;1778;47.966;7.854;2023-02-15T05:55:27;-2.30;99.90
3528;DHT22;1778;47.966;7.854;2023-02-15T05:56:29;-2.30;99.90
3528;DHT22;1778;47.966;7.854;2023-02-15T05:57:30;-2.30;99.90
3528;DHT22;1778;47.966;7.854;2023-02-15T05:58:38;-2.30;99.90
3528;DHT22;1778;47.966;7.854;2023-02-15T05:59:40;-2.30;99.90
3528;DHT22;1778;47.966;7.854;2023-02-15T06:00:41;-2.30;99.90
3528;DHT22;1778;47.966;7.854;2023-02-15T06:01:43;-2.30;99.90
3528;DHT22;1778;47.966;7.854;2023-02-15T06:02:44;-2.30;99.90
3528;DHT22;1778;47.966;7.854;2023-02-15T06:03:46;-2.30;99.90
3528;DHT22;1778;47.966;7.854;2023-02-15T06:04:48;-2.30;99.90
3528;DHT22;1778;47.966;7.854;2023-02-15T06:05:49;-2.20;99.90
3528;DHT22;1778;47.966;7.854;2023-02-15T06:06:51;-2.20;99.90
3528;DHT22;1778;47.966;7.854;2023-02-15T06:07:52;-2.10;99.90
3528;DHT22;1778;47.966;7.854;2023-02-15T06:08:54;-2.20;99.90
3528;DHT22;1778;47.966;7.854;2023-02-15T06:09:55;-2.20;99.90
3528;DHT22;1778;47.966;7.854;2023-02-15T06:10:57;-2.20;99.90
3528;DHT22;1778;47.966;7.854;2023-02-15T06:11:58;-2.10;99.90
3528;DHT22;1778;47.966;7.854;2023-02-15T06:13:00;-2.20;99.90
3528;DHT22;1778;47.966;7.854;2023-02-15T06:14:01;-2.10;99.90
3528;DHT22;1778;47.966;7.854;2023-02-15T06:15:04;-2.00;99.90
3528;DHT22;1778;47.966;7.854;2023-02-15T06:16:06;-2.10;99.90
3528;DHT22;1778;47.966;7.854;2023-02-15T06:17:08;-2.00;99.90
3528;DHT22;1778;47.966;7.854;2023-02-15T06:18:09;-2.00;99.90
3528;DHT22;1778;47.966;7.854;2023-02-15T06:19:11;-2.00;99.90
3528;DHT22;1778;47.966;7.854;2023-02-15T06:20:13;-2.10;99.90
3528;DHT22;1778;47.966;7.854;2023-02-15T06:21:14;-2.10;99.90
3528;DHT22;1778;47.966;7.854;2023-02-15T06:22:16;-2.20;99.90
3528;DHT22;1778;47.966;7.854;2023-02-15T06:23:17;-2.20;99.90
3528;DHT22;1778;47.966;7.854;2023-02-15T06:24:19;-2.20;99.90
3528;DHT22;1778;47.966;7.854;2023-02-15T06:25:20;-2.30;99.90
3528;DHT22;1778;47.966;7.854;2023-02-15T06:26:22;-2.30;99.90
3528;DHT22;1778;47.966;7.854;2023-02-15T06:27:23;-2.30;99.90
3528;DHT22;1778;47.966;7.854;2023-02-15T06:28:25;-2.20;99.90
3528;DHT22;1778;47.966;7.854;2023-02-15T06:29:27;-2.20;99.90
3528;DHT22;1778;47.966;7.854;2023-02-15T06:30:28;-2.20;99.90
3528;DHT22;1778;47.966;7.854;2023-02-15T06:31:30;-2.20;99.90
3528;DHT22;1778;47.966;7.854;2023-02-15T06:32:32;-2.30;99.90
3528;DHT22;1778;47.966;7.854;2023-02-15T06:33:33;-2.30;99.90
3528;DHT22;1778;47.966;7.854;2023-02-15T06:34:35;-2.30;99.90
3528;DHT22;1778;47.966;7.854;2023-02-15T06:35:37;-2.40;99.90
3528;DHT22;1778;47.966;7.854;2023-02-15T06:36:38;-2.30;99.90
3528;DHT22;1778;47.966;7.854;2023-02-15T06:37:40;-2.30;99.90
3528;DHT22;1778;47.966;7.854;2023-02-15T06:38:41;-2.30;99.90
3528;DHT22;1778;47.966;7.854;2023-02-15T06:39:43;-2.40;99.90
3528;DHT22;1778;47.966;7.854;2023-02-15T06:40:46;-2.30;99.90
3528;DHT22;1778;47.966;7.854;2023-02-15T06:41:47;-2.30;99.90
3528;DHT22;1778;47.966;7.854;2023-02-15T06:42:49;-2.20;99.90
3528;DHT22;1778;47.966;7.854;2023-02-15T06:43:50;-2.20;99.90
3528;DHT22;1778;47.966;7.854;2023-02-15T06:44:52;-2.20;99.90
3528;DHT22;1778;47.966;7.854;2023-02-15T06:45:53;-2.20;99.90
3528;DHT22;1778;47.966;7.854;2023-02-15T06:46:55;-2.20;99.90
3528;DHT22;1778;47.966;7.854;2023-02-15T06:47:57;-2.20;99.90
3528;DHT22;1778;47.966;7.854;2023-02-15T06:48:58;-2.30;99.90
3528;DHT22;1778;47.966;7.854;2023-02-15T06:49:59;-2.30;99.90
3528;DHT22;1778;47.966;7.854;2023-02-15T06:51:01;-2.30;99.90
3528;DHT22;1778;47.966;7.854;2023-02-15T06:52:03;-2.20;99.90
3528;DHT22;1778;47.966;7.854;2023-02-15T06:53:05;-2.30;99.90
3528;DHT22;1778;47.966;7.854;2023-02-15T06:54:06;-2.30;99.90
3528;DHT22;1778;47.966;7.854;2023-02-15T06:55:08;-2.30;99.90
3528;DHT22;1778;47.966;7.854;2023-02-15T06:56:10;-2.30;99.90
3528;DHT22;1778;47.966;7.854;2023-02-15T06:57:11;-2.20;99.90
3528;DHT22;1778;47.966;7.854;2023-02-15T06:58:13;-2.20;99.90
3528;DHT22;1778;47.966;7.854;2023-02-15T06:59:14;-2.30;99.90
3528;DHT22;1778;47.966;7.854;2023-02-15T07:00:16;-2.20;99.90
3528;DHT22;1778;47.966;7.854;2023-02-15T07:01:18;-2.20;99.90
3528;DHT22;1778;47.966;7.854;2023-02-15T07:02:20;-2.20;99.90
3528;DHT22;1778;47.966;7.854;2023-02-15T07:03:22;-2.20;99.90
3528;DHT22;1778;47.966;7.854;2023-02-15T07:04:23;-2.20;99.90
3528;DHT22;1778;47.966;7.854;2023-02-15T07:05:26;-2.20;99.90
3528;DHT22;1778;47.966;7.854;2023-02-15T07:06:33;-2.30;99.90
3528;DHT22;1778;47.966;7.854;2023-02-15T07:07:34;-2.30;99.90
3528;DHT22;1778;47.966;7.854;2023-02-15T07:08:37;-2.30;99.90
3528;DHT22;1778;47.966;7.854;2023-02-15T07:09:39;-2.30;99.90
3528;DHT22;1778;47.966;7.854;2023-02-15T07:10:44;-2.40;99.90
3528;DHT22;1778;47.966;7.854;2023-02-15T07:11:45;-2.30;99.90
3528;DHT22;1778;47.966;7.854;2023-02-15T07:13:05;-2.30;99.90
3528;DHT22;1778;47.966;7.854;2023-02-15T07:14:07;-2.30;99.90
3528;DHT22;1778;47.966;7.854;2023-02-15T07:15:13;-2.30;99.90
3528;DHT22;1778;47.966;7.854;2023-02-15T07:16:15;-2.40;99.90
3528;DHT22;1778;47.966;7.854;2023-02-15T07:17:17;-2.40;99.90
3528;DHT22;1778;47.966;7.854;2023-02-15T07:18:36;-2.30;99.90
3528;DHT22;1778;47.966;7.854;2023-02-15T07:19:37;-2.30;99.90
3528;DHT22;1778;47.966;7.854;2023-02-15T07:20:39;-2.30;99.90
3528;DHT22;1778;47.966;7.854;2023-02-15T07:21:42;-2.30;99.90
3528;DHT22;1778;47.966;7.854;2023-02-15T07:22:46;-2.30;99.90
3528;DHT22;1778;47.966;7.854;2023-02-15T07:23:48;-2.20;99.90
3528;DHT22;1778;47.966;7.854;2023-02-15T07:24:50;-2.20;99.90
3528;DHT22;1778;47.966;7.854;2023-02-15T07:25:59;-2.20;99.90
3528;DHT22;1778;47.966;7.854;2023-02-15T07:27:01;-2.30;99.90
3528;DHT22;1778;47.966;7.854;2023-02-15T07:28:04;-2.30;99.90
3528;DHT22;1778;47.966;7.854;2023-02-15T07:29:05;-2.30;99.90
3528;DHT22;1778;47.966;7.854;2023-02-15T07:30:10;-2.30;99.90